Portada
METAR-TAF:

METAR-TAF

Aeropuertos :

Aeropuerto de Albacete

Albacete, España

latitud: 38-57N, longitud: 001-51W, altitud: 702 m

Observación

El informe se hizo hace 13 minutos, a las 22:00 UTC
Viento 6 kt del suroeste
Temperatura 17°C
Humedad 48%
Presión 1019 hPa
Visibilidad 10 km o más
sin nubes por debajo de 1500 m y sin presencia de cumulonimbus.

METAR: LEAB 062200Z 23006KT CAVOK 17/06 Q1019 NOSIG

Hora: 00:13 (22:13 UTC)

Pronóstico

El informe se hizo hace 5 horas y 13 minutos, a las 17:00 UTC
Pronóstico válido del 06 a las 18 UTC al 07 a las 18 UTC
Viento 7 kt del noroeste
Visibilidad 10 km o más
sin nubes por debajo de 1500 m y sin presencia de cumulonimbus.

TAF: LEAB 061700Z 0618/0718 32007KT CAVOK TX27/0716Z TN11/0705Z

Observaciones y pronósticos meteorológicos de más de 4000 aeropuertos (mensajes METAR y TAF).

Los puntos amarillos y rojos representan las estaciones disponibles.

Ponga el ratón en el punto deseado para ver el nombre de la estación.

Haga clic para ver las observaciones y los pronósticos meteorológicos.

Para cambiar el mapa : haga clic en los botones verdes con una cruz de color negro para hacer un zoom, en el botón verde con un guión para alejar o en las flechas verdes para mapas adyacentes.


METAR-TAF: